Private Wetterstation Sandau
Wetterdaten: Sonntag, 12.08.2012
Datum Zeit Temp. A. Feuchte A. Luftdruck Regen Wind Richtung Richtung Taupunkt Windchill
12.08.2012 00:01 14,5 C 71 % 1023,3 hPa 0,0 l/m 2,5 km/h (1 Bft) O 90 9,3 C 14,5 C
12.08.2012 00:06 14,4 C 71 % 1023,2 hPa 0,0 l/m 0,0 km/h (0 Bft) O 90 9,2 C 14,4 C
12.08.2012 00:11 14,3 C 72 % 1023,2 hPa 0,0 l/m 2,5 km/h (1 Bft) O 90 9,3 C 14,3 C
12.08.2012 00:16 14,2 C 72 % 1023,1 hPa 0,0 l/m 4,0 km/h (1 Bft) O 90 9,2 C 14,2 C
12.08.2012 00:21 14,1 C 72 % 1023,1 hPa 0,0 l/m 4,0 km/h (1 Bft) O-NO 67 9,1 C 14,1 C
12.08.2012 00:26 13,9 C 73 % 1023,0 hPa 0,0 l/m 2,9 km/h (1 Bft) O-NO 67 9,1 C 13,9 C
12.08.2012 00:31 13,9 C 73 % 1023,0 hPa 0,0 l/m 4,7 km/h (1 Bft) O-NO 67 9,1 C 13,9 C
12.08.2012 00:36 13,8 C 73 % 1023,0 hPa 0,0 l/m 4,7 km/h (1 Bft) O 90 9,0 C 13,8 C
12.08.2012 00:41 13,6 C 73 % 1023,0 hPa 0,0 l/m 4,0 km/h (1 Bft) O-NO 67 8,9 C 13,6 C
12.08.2012 00:46 13,6 C 73 % 1023,1 hPa 0,0 l/m 4,3 km/h (1 Bft) O-SO 112 8,9 C 13,6 C
12.08.2012 00:51 13,5 C 73 % 1023,0 hPa 0,0 l/m 4,0 km/h (1 Bft) O 90 8,8 C 13,5 C
12.08.2012 00:56 13,5 C 74 % 1023,0 hPa 0,0 l/m 2,5 km/h (1 Bft) O-NO 67 9,0 C 13,5 C
12.08.2012 01:01 13,4 C 74 % 1023,0 hPa 0,0 l/m 2,9 km/h (1 Bft) SO 135 8,9 C 13,4 C
12.08.2012 01:06 13,3 C 74 % 1022,9 hPa 0,0 l/m 2,2 km/h (1 Bft) O-NO 67 8,8 C 13,3 C
12.08.2012 01:11 13,2 C 75 % 1022,9 hPa 0,0 l/m 0,0 km/h (0 Bft) O-NO 67 8,9 C 13,2 C
12.08.2012 01:16 13,1 C 75 % 1023,0 hPa 0,0 l/m 3,6 km/h (1 Bft) O 90 8,8 C 13,1 C
12.08.2012 01:21 13,0 C 75 % 1022,9 hPa 0,0 l/m 5,4 km/h (1 Bft) O-NO 67 8,7 C 13,0 C
12.08.2012 01:26 12,9 C 76 % 1022,8 hPa 0,0 l/m 5,0 km/h (1 Bft) O-NO 67 8,8 C 12,9 C
12.08.2012 01:31 12,8 C 76 % 1022,9 hPa 0,0 l/m 3,2 km/h (1 Bft) O-NO 67 8,7 C 12,8 C
12.08.2012 01:36 12,8 C 77 % 1022,8 hPa 0,0 l/m 5,0 km/h (1 Bft) O-NO 67 8,9 C 12,8 C
12.08.2012 01:41 12,8 C 77 % 1022,7 hPa 0,0 l/m 0,0 km/h (0 Bft) O-NO 67 8,9 C 12,8 C
12.08.2012 01:46 12,6 C 77 % 1022,9 hPa 0,0 l/m 4,3 km/h (1 Bft) O-NO 67 8,7 C 12,6 C
12.08.2012 01:51 12,6 C 78 % 1022,7 hPa 0,0 l/m 4,0 km/h (1 Bft) O-NO 67 8,9 C 12,6 C
12.08.2012 01:56 12,6 C 78 % 1022,8 hPa 0,0 l/m 4,7 km/h (1 Bft) O-NO 67 8,9 C 12,6 C
12.08.2012 02:01 12,6 C 78 % 1022,7 hPa 0,0 l/m 3,6 km/h (1 Bft) O-NO 67 8,9 C 12,6 C
12.08.2012 02:06 12,5 C 79 % 1022,7 hPa 0,0 l/m 2,5 km/h (1 Bft) NO 45 9,0 C 12,5 C
12.08.2012 02:11 12,5 C 79 % 1022,7 hPa 0,0 l/m 2,5 km/h (1 Bft) NO 45 9,0 C 12,5 C
12.08.2012 02:16 12,4 C 79 % 1022,7 hPa 0,0 l/m 0,0 km/h (0 Bft) O-SO 112 8,9 C 12,4 C
12.08.2012 02:21 12,4 C 79 % 1022,6 hPa 0,0 l/m 7,2 km/h (2 Bft) O-NO 67 8,9 C 12,4 C
12.08.2012 02:26 12,4 C 80 % 1022,4 hPa 0,0 l/m 5,0 km/h (1 Bft) O-NO 67 9,0 C 12,4 C
12.08.2012 02:31 12,4 C 80 % 1022,5 hPa 0,0 l/m 7,2 km/h (2 Bft) O-NO 67 9,0 C 12,4 C
12.08.2012 02:36 12,3 C 81 % 1022,5 hPa 0,0 l/m 5,8 km/h (2 Bft) O-NO 67 9,1 C 12,3 C
12.08.2012 02:41 12,2 C 81 % 1022,5 hPa 0,0 l/m 3,6 km/h (1 Bft) NO 45 9,0 C 12,2 C
12.08.2012 02:46 12,2 C 81 % 1022,3 hPa 0,0 l/m 5,4 km/h (1 Bft) O-NO 67 9,0 C 12,2 C
12.08.2012 02:51 12,2 C 81 % 1022,5 hPa 0,0 l/m 2,5 km/h (1 Bft) O 90 9,0 C 12,2 C
12.08.2012 02:56 12,1 C 81 % 1022,5 hPa 0,0 l/m 4,0 km/h (1 Bft) O-NO 67 8,9 C 12,1 C
12.08.2012 03:01 12,1 C 81 % 1022,5 hPa 0,0 l/m 6,1 km/h (2 Bft) O 90 8,9 C 12,1 C
12.08.2012 03:06 12,0 C 82 % 1022,5 hPa 0,0 l/m 2,5 km/h (1 Bft) O 90 9,0 C 12,0 C
12.08.2012 03:11 11,9 C 82 % 1022,4 hPa 0,0 l/m 5,4 km/h (1 Bft) O 90 8,9 C 11,9 C
12.08.2012 03:16 11,9 C 82 % 1022,4 hPa 0,0 l/m 0,0 km/h (0 Bft) O 90 8,9 C 11,9 C
12.08.2012 03:21 11,9 C 82 % 1022,5 hPa 0,0 l/m 0,0 km/h (0 Bft) O-NO 67 8,9 C 11,9 C
12.08.2012 03:26 11,8 C 82 % 1022,5 hPa 0,0 l/m 0,0 km/h (0 Bft) O 90 8,8 C 11,8 C
12.08.2012 03:31 11,8 C 82 % 1022,3 hPa 0,0 l/m 0,0 km/h (0 Bft) O 90 8,8 C 11,8 C
12.08.2012 03:36 11,8 C 82 % 1022,2 hPa 0,0 l/m 0,0 km/h (0 Bft) O 90 8,8 C 11,8 C
12.08.2012 03:41 11,6 C 82 % 1022,3 hPa 0,0 l/m 0,0 km/h (0 Bft) SO 135 8,6 C 11,6 C
12.08.2012 03:46 11,6 C 82 % 1022,3 hPa 0,0 l/m 0,0 km/h (0 Bft) SO 135 8,6 C 11,6 C
12.08.2012 03:51 11,6 C 82 % 1022,1 hPa 0,0 l/m 0,0 km/h (0 Bft) O 90 8,6 C 11,6 C
12.08.2012 03:56 11,6 C 83 % 1022,2 hPa 0,0 l/m 2,2 km/h (1 Bft) O 90 8,8 C 11,6 C
12.08.2012 04:01 11,6 C 83 % 1022,1 hPa 0,0 l/m 2,2 km/h (1 Bft) O-SO 112 8,8 C 11,6 C
12.08.2012 04:06 11,5 C 84 % 1022,0 hPa 0,0 l/m 2,9 km/h (1 Bft) O 90 8,9 C 11,5 C
12.08.2012 04:11 11,4 C 84 % 1022,1 hPa 0,0 l/m 2,5 km/h (1 Bft) O 90 8,8 C 11,4 C
12.08.2012 04:16 11,4 C 85 % 1022,1 hPa 0,0 l/m 0,0 km/h (0 Bft) O-NO 67 9,0 C 11,4 C
12.08.2012 04:21 11,3 C 85 % 1022,1 hPa 0,0 l/m 0,0 km/h (0 Bft) O-NO 67 8,9 C 11,3 C
12.08.2012 04:26 11,3 C 85 % 1022,1 hPa 0,0 l/m 0,0 km/h (0 Bft) O-NO 67 8,9 C 11,3 C
12.08.2012 04:31 11,3 C 85 % 1022,1 hPa 0,0 l/m 3,2 km/h (1 Bft) O-NO 67 8,9 C 11,3 C
12.08.2012 04:36 11,3 C 85 % 1022,0 hPa 0,0 l/m 1,4 km/h (1 Bft) O 90 8,9 C 11,3 C
12.08.2012 04:41 11,3 C 85 % 1022,0 hPa 0,0 l/m 3,2 km/h (1 Bft) O-SO 112 8,9 C 11,3 C
12.08.2012 04:46 11,2 C 85 % 1022,0 hPa 0,0 l/m 7,2 km/h (2 Bft) O-NO 67 8,8 C 11,2 C
12.08.2012 04:51 11,1 C 86 % 1022,0 hPa 0,0 l/m 2,5 km/h (1 Bft) O 90 8,8 C 11,1 C
12.08.2012 04:56 11,1 C 86 % 1022,0 hPa 0,0 l/m 1,4 km/h (1 Bft) O 90 8,8 C 11,1 C
12.08.2012 05:01 11,1 C 86 % 1021,8 hPa 0,0 l/m 0,0 km/h (0 Bft) SO 135 8,8 C 11,1 C
12.08.2012 05:06 11,0 C 86 % 1021,9 hPa 0,0 l/m 0,0 km/h (0 Bft) O-SO 112 8,7 C 11,0 C
12.08.2012 05:11 11,0 C 86 % 1022,0 hPa 0,0 l/m 2,5 km/h (1 Bft) SO 135 8,7 C 11,0 C
12.08.2012 05:16 11,0 C 86 % 1022,0 hPa 0,0 l/m 1,1 km/h (1 Bft) O-SO 112 8,7 C 11,0 C
12.08.2012 05:21 10,9 C 86 % 1022,0 hPa 0,0 l/m 2,5 km/h (1 Bft) O-SO 112 8,7 C 10,9 C
12.08.2012 05:26 10,9 C 86 % 1022,0 hPa 0,0 l/m 0,0 km/h (0 Bft) SO 135 8,7 C 10,9 C
12.08.2012 05:31 10,9 C 86 % 1022,0 hPa 0,0 l/m 2,5 km/h (1 Bft) O-SO 112 8,7 C 10,9 C
12.08.2012 05:36 10,9 C 86 % 1021,9 hPa 0,0 l/m 0,0 km/h (0 Bft) O-SO 112 8,7 C 10,9 C
12.08.2012 05:41 10,8 C 86 % 1022,1 hPa 0,0 l/m 2,2 km/h (1 Bft) O-SO 112 8,6 C 10,8 C
12.08.2012 05:46 10,8 C 86 % 1022,0 hPa 0,0 l/m 4,3 km/h (1 Bft) O-SO 112 8,6 C 10,8 C
12.08.2012 05:51 10,8 C 86 % 1022,0 hPa 0,0 l/m 3,6 km/h (1 Bft) O-SO 112 8,6 C 10,8 C
12.08.2012 05:56 10,7 C 86 % 1022,1 hPa 0,0 l/m 2,5 km/h (1 Bft) O-SO 112 8,5 C 10,7 C
12.08.2012 06:01 10,7 C 86 % 1022,0 hPa 0,0 l/m 3,2 km/h (1 Bft) O-SO 112 8,5 C 10,7 C
12.08.2012 06:06 10,7 C 87 % 1022,0 hPa 0,0 l/m 2,5 km/h (1 Bft) O-SO 112 8,6 C 10,7 C
12.08.2012 06:11 10,6 C 87 % 1021,8 hPa 0,0 l/m 3,2 km/h (1 Bft) O-SO 112 8,5 C 10,6 C
12.08.2012 06:16 10,6 C 87 % 1021,9 hPa 0,0 l/m 3,6 km/h (1 Bft) O 90 8,5 C 10,6 C
12.08.2012 06:21 10,7 C 87 % 1021,9 hPa 0,0 l/m 3,6 km/h (1 Bft) SO 135 8,6 C 10,7 C
12.08.2012 06:26 10,8 C 87 % 1021,9 hPa 0,0 l/m 6,1 km/h (2 Bft) O-SO 112 8,7 C 10,8 C
12.08.2012 06:31 10,8 C 87 % 1021,9 hPa 0,0 l/m 8,3 km/h (2 Bft) O-SO 112 8,7 C 10,8 C
12.08.2012 06:36 10,9 C 87 % 1021,8 hPa 0,0 l/m 0,0 km/h (0 Bft) O-NO 67 8,8 C 10,9 C
12.08.2012 06:41 10,9 C 87 % 1021,8 hPa 0,0 l/m 2,2 km/h (1 Bft) O-NO 67 8,8 C 10,9 C
12.08.2012 06:46 11,2 C 87 % 1021,8 hPa 0,0 l/m 4,0 km/h (1 Bft) O 90 9,1 C 11,2 C
12.08.2012 06:51 11,9 C 87 % 1021,8 hPa 0,0 l/m 4,7 km/h (1 Bft) O-NO 67 9,8 C 11,9 C
12.08.2012 06:56 12,5 C 85 % 1021,8 hPa 0,0 l/m 3,6 km/h (1 Bft) O-NO 67 10,0 C 12,5 C
12.08.2012 07:01 13,0 C 83 % 1021,9 hPa 0,0 l/m 5,8 km/h (2 Bft) O 90 10,2 C 13,0 C
12.08.2012 07:06 13,3 C 82 % 1021,8 hPa 0,0 l/m 3,6 km/h (1 Bft) O-NO 67 10,3 C 13,3 C
12.08.2012 07:11 13,4 C 81 % 1021,9 hPa 0,0 l/m 5,4 km/h (1 Bft) O 90 10,2 C 13,4 C
12.08.2012 07:16 13,6 C 80 % 1021,9 hPa 0,0 l/m 8,3 km/h (2 Bft) O-SO 112 10,2 C 13,6 C
12.08.2012 07:21 13,8 C 80 % 1022,0 hPa 0,0 l/m 7,9 km/h (2 Bft) O-SO 112 10,4 C 13,8 C
12.08.2012 07:26 13,8 C 79 % 1021,9 hPa 0,0 l/m 8,3 km/h (2 Bft) O-SO 112 10,2 C 13,8 C
12.08.2012 07:31 13,8 C 79 % 1021,8 hPa 0,0 l/m 6,1 km/h (2 Bft) O-NO 67 10,2 C 13,8 C
12.08.2012 07:36 13,8 C 79 % 1021,8 hPa 0,0 l/m 3,2 km/h (1 Bft) O-NO 67 10,2 C 13,8 C
12.08.2012 07:41 13,6 C 79 % 1021,9 hPa 0,0 l/m 9,4 km/h (2 Bft) O 90 10,0 C 13,6 C
12.08.2012 07:46 13,8 C 79 % 1022,0 hPa 0,0 l/m 6,5 km/h (2 Bft) NO 45 10,2 C 13,8 C
12.08.2012 07:51 13,9 C 79 % 1021,9 hPa 0,0 l/m 5,0 km/h (1 Bft) O-NO 67 10,3 C 13,9 C
12.08.2012 07:56 13,9 C 79 % 1021,9 hPa 0,0 l/m 7,2 km/h (2 Bft) O 90 10,3 C 13,9 C
12.08.2012 08:01 14,1 C 79 % 1022,0 hPa 0,0 l/m 5,8 km/h (2 Bft) SO 135 10,5 C 14,1 C
12.08.2012 08:06 14,3 C 79 % 1022,0 hPa 0,0 l/m 9,7 km/h (2 Bft) O-NO 67 10,7 C 14,3 C
12.08.2012 08:11 14,4 C 78 % 1022,0 hPa 0,0 l/m 6,1 km/h (2 Bft) O 90 10,6 C 14,4 C
12.08.2012 08:16 14,5 C 77 % 1022,1 hPa 0,0 l/m 8,6 km/h (2 Bft) O 90 10,5 C 14,5 C
12.08.2012 08:21 14,4 C 77 % 1022,1 hPa 0,0 l/m 13,0 km/h (3 Bft) O-NO 67 10,4 C 14,4 C
12.08.2012 08:26 14,6 C 77 % 1022,1 hPa 0,0 l/m 12,2 km/h (2 Bft) NO 45 10,6 C 14,6 C
12.08.2012 08:31 14,8 C 77 % 1022,2 hPa 0,0 l/m 6,8 km/h (2 Bft) SO 135 10,8 C 14,8 C
12.08.2012 08:36 14,9 C 76 % 1022,2 hPa 0,0 l/m 3,2 km/h (1 Bft) O-SO 112 10,7 C 14,9 C
12.08.2012 08:41 15,1 C 75 % 1022,2 hPa 0,0 l/m 14,8 km/h (3 Bft) O 90 10,7 C 15,1 C
12.08.2012 08:46 15,3 C 75 % 1022,2 hPa 0,0 l/m 4,7 km/h (1 Bft) SO 135 10,9 C 15,3 C
12.08.2012 08:51 15,6 C 74 % 1022,2 hPa 0,0 l/m 12,2 km/h (2 Bft) SO 135 11,0 C 15,6 C
12.08.2012 08:56 15,9 C 73 % 1022,4 hPa 0,0 l/m 9,0 km/h (2 Bft) SO 135 11,1 C 15,9 C
12.08.2012 09:01 16,1 C 72 % 1022,2 hPa 0,0 l/m 6,5 km/h (2 Bft) O-NO 67 11,0 C 16,1 C
12.08.2012 09:06 16,1 C 72 % 1022,2 hPa 0,0 l/m 8,3 km/h (2 Bft) O-SO 112 11,0 C 16,1 C
12.08.2012 09:11 16,2 C 71 % 1022,2 hPa 0,0 l/m 13,0 km/h (3 Bft) O-SO 112 10,9 C 16,2 C
12.08.2012 09:16 16,1 C 70 % 1022,2 hPa 0,0 l/m 3,6 km/h (1 Bft) SO 135 10,6 C 16,1 C
12.08.2012 09:21 16,3 C 71 % 1022,2 hPa 0,0 l/m 8,3 km/h (2 Bft) O-NO 67 11,0 C 16,3 C
12.08.2012 09:26 16,4 C 70 % 1022,2 hPa 0,0 l/m 5,8 km/h (2 Bft) O-NO 67 10,9 C 16,4 C
12.08.2012 09:31 16,7 C 70 % 1022,2 hPa 0,0 l/m 7,2 km/h (2 Bft) O 90 11,2 C 16,7 C
12.08.2012 09:36 17,0 C 70 % 1022,2 hPa 0,0 l/m 4,0 km/h (1 Bft) O-NO 67 11,5 C 17,0 C
12.08.2012 09:41 17,1 C 68 % 1022,2 hPa 0,0 l/m 11,5 km/h (2 Bft) SO 135 11,1 C 17,1 C
12.08.2012 09:46 17,3 C 68 % 1022,2 hPa 0,0 l/m 10,8 km/h (2 Bft) O 90 11,3 C 17,3 C
12.08.2012 09:51 17,5 C 66 % 1022,2 hPa 0,0 l/m 5,0 km/h (1 Bft) S-SO 157 11,1 C 17,5 C
12.08.2012 09:56 17,6 C 66 % 1022,3 hPa 0,0 l/m 4,7 km/h (1 Bft) O-NO 67 11,2 C 17,6 C
12.08.2012 10:01 17,9 C 66 % 1022,2 hPa 0,0 l/m 5,0 km/h (1 Bft) O-SO 112 11,5 C 17,9 C
12.08.2012 10:06 18,3 C 64 % 1022,2 hPa 0,0 l/m 14,8 km/h (3 Bft) O 90 11,4 C 18,3 C
12.08.2012 10:11 18,4 C 61 % 1022,2 hPa 0,0 l/m 7,6 km/h (2 Bft) O-NO 67 10,7 C 18,4 C
12.08.2012 10:16 18,4 C 59 % 1022,1 hPa 0,0 l/m 16,9 km/h (3 Bft) SO 135 10,2 C 18,4 C
12.08.2012 10:21 18,5 C 58 % 1022,2 hPa 0,0 l/m 11,5 km/h (2 Bft) SO 135 10,1 C 18,5 C
12.08.2012 10:26 18,8 C 59 % 1022,2 hPa 0,0 l/m 4,7 km/h (1 Bft) O 90 10,6 C 18,8 C
12.08.2012 10:31 19,0 C 57 % 1022,0 hPa 0,0 l/m 7,2 km/h (2 Bft) O-NO 67 10,3 C 19,0 C
12.08.2012 10:36 19,2 C 56 % 1022,1 hPa 0,0 l/m 10,1 km/h (2 Bft) O-SO 112 10,2 C 19,2 C
12.08.2012 10:41 19,1 C 55 % 1022,2 hPa 0,0 l/m 5,8 km/h (2 Bft) S-SO 157 9,8 C 19,1 C
12.08.2012 10:46 19,2 C 55 % 1022,1 hPa 0,0 l/m 7,9 km/h (2 Bft) S-SO 157 9,9 C 19,2 C
12.08.2012 10:51 19,4 C 55 % 1022,2 hPa 0,0 l/m 16,9 km/h (3 Bft) O 90 10,1 C 19,4 C
12.08.2012 10:56 19,3 C 54 % 1022,1 hPa 0,0 l/m 3,6 km/h (1 Bft) SO 135 9,8 C 19,3 C
12.08.2012 11:01 19,4 C 54 % 1022,1 hPa 0,0 l/m 13,7 km/h (3 Bft) O 90 9,8 C 19,4 C
12.08.2012 11:06 19,3 C 54 % 1022,2 hPa 0,0 l/m 10,8 km/h (2 Bft) SO 135 9,8 C 19,3 C
12.08.2012 11:11 19,3 C 54 % 1022,2 hPa 0,0 l/m 10,1 km/h (2 Bft) S-SO 157 9,8 C 19,3 C
12.08.2012 11:16 19,5 C 55 % 1022,1 hPa 0,0 l/m 10,1 km/h (2 Bft) O-SO 112 10,2 C 19,5 C
12.08.2012 11:21 19,6 C 54 % 1022,1 hPa 0,0 l/m 15,8 km/h (3 Bft) O-NO 67 10,0 C 19,6 C
12.08.2012 11:26 19,8 C 53 % 1022,0 hPa 0,0 l/m 8,3 km/h (2 Bft) N 360 9,9 C 19,8 C
12.08.2012 11:31 19,8 C 53 % 1022,0 hPa 0,0 l/m 12,6 km/h (3 Bft) O-SO 112 9,9 C 19,8 C
12.08.2012 11:36 19,9 C 54 % 1022,1 hPa 0,0 l/m 10,8 km/h (2 Bft) O 90 10,3 C 19,9 C
12.08.2012 11:41 20,3 C 52 % 1022,1 hPa 0,0 l/m 6,8 km/h (2 Bft) O 90 10,1 C 20,3 C
12.08.2012 11:46 20,3 C 52 % 1021,9 hPa 0,0 l/m 4,7 km/h (1 Bft) SO 135 10,1 C 20,3 C
12.08.2012 11:51 20,6 C 52 % 1021,8 hPa 0,0 l/m 12,6 km/h (3 Bft) SO 135 10,4 C 20,6 C
12.08.2012 11:56 20,8 C 51 % 1021,8 hPa 0,0 l/m 10,1 km/h (2 Bft) O-SO 112 10,3 C 20,8 C
12.08.2012 12:01 20,8 C 51 % 1021,8 hPa 0,0 l/m 7,9 km/h (2 Bft) O-NO 67 10,3 C 20,8 C
12.08.2012 12:06 20,7 C 48 % 1021,8 hPa 0,0 l/m 18,0 km/h (3 Bft) O 90 9,3 C 20,7 C
12.08.2012 12:11 20,2 C 49 % 1021,8 hPa 0,0 l/m 14,4 km/h (3 Bft) O-SO 112 9,1 C 20,2 C
12.08.2012 12:16 20,3 C 48 % 1021,7 hPa 0,0 l/m 8,3 km/h (2 Bft) O-NO 67 8,9 C 20,3 C
12.08.2012 12:21 20,6 C 46 % 1021,7 hPa 0,0 l/m 4,3 km/h (1 Bft) S-SO 157 8,6 C 20,6 C
12.08.2012 12:26 20,9 C 46 % 1021,5 hPa 0,0 l/m 5,4 km/h (1 Bft) S 180 8,8 C 20,9 C
12.08.2012 12:31 21,3 C 45 % 1021,5 hPa 0,0 l/m 7,2 km/h (2 Bft) SO 135 8,9 C 21,3 C
12.08.2012 12:36 21,6 C 45 % 1021,4 hPa 0,0 l/m 6,1 km/h (2 Bft) O 90 9,2 C 21,6 C
12.08.2012 12:41 21,6 C 45 % 1021,5 hPa 0,0 l/m 18,7 km/h (3 Bft) NO 45 9,2 C 21,6 C
12.08.2012 12:46 21,5 C 43 % 1021,5 hPa 0,0 l/m 13,0 km/h (3 Bft) SO 135 8,4 C 21,5 C
12.08.2012 12:51 21,4 C 44 % 1021,5 hPa 0,0 l/m 13,3 km/h (3 Bft) O-NO 67 8,6 C 21,4 C
12.08.2012 12:56 21,3 C 44 % 1021,4 hPa 0,0 l/m 17,6 km/h (3 Bft) O-SO 112 8,5 C 21,3 C
12.08.2012 13:01 21,5 C 43 % 1021,5 hPa 0,0 l/m 8,6 km/h (2 Bft) SO 135 8,4 C 21,5 C
12.08.2012 13:06 21,8 C 43 % 1021,4 hPa 0,0 l/m 8,3 km/h (2 Bft) SO 135 8,7 C 21,8 C
12.08.2012 13:11 22,3 C 42 % 1021,5 hPa 0,0 l/m 9,0 km/h (2 Bft) SO 135 8,8 C 22,3 C
12.08.2012 13:16 22,5 C 40 % 1021,4 hPa 0,0 l/m 6,1 km/h (2 Bft) O-NO 67 8,2 C 22,5 C
12.08.2012 13:21 22,2 C 40 % 1021,2 hPa 0,0 l/m 5,0 km/h (1 Bft) SO 135 8,0 C 22,2 C
12.08.2012 13:26 22,3 C 41 % 1021,2 hPa 0,0 l/m 4,0 km/h (1 Bft) SW 225 8,4 C 22,3 C
12.08.2012 13:31 22,4 C 41 % 1021,2 hPa 0,0 l/m 7,6 km/h (2 Bft) S-SO 157 8,5 C 22,4 C
12.08.2012 13:36 22,6 C 41 % 1021,1 hPa 0,0 l/m 5,0 km/h (1 Bft) SO 135 8,7 C 22,6 C
12.08.2012 13:41 22,5 C 41 % 1021,2 hPa 0,0 l/m 9,7 km/h (2 Bft) O-NO 67 8,6 C 22,5 C
12.08.2012 13:46 22,6 C 40 % 1021,2 hPa 0,0 l/m 8,3 km/h (2 Bft) O-SO 112 8,3 C 22,6 C
12.08.2012 13:51 22,2 C 41 % 1021,1 hPa 0,0 l/m 2,9 km/h (1 Bft) O 90 8,3 C 22,2 C
12.08.2012 13:56 22,5 C 41 % 1021,1 hPa 0,0 l/m 5,4 km/h (1 Bft) SO 135 8,6 C 22,5 C
12.08.2012 14:01 22,9 C 40 % 1021,1 hPa 0,0 l/m 4,0 km/h (1 Bft) O-NO 67 8,6 C 22,9 C
12.08.2012 14:06 22,5 C 39 % 1021,1 hPa 0,0 l/m 14,0 km/h (3 Bft) O 90 7,8 C 22,5 C
12.08.2012 14:11 22,2 C 40 % 1021,0 hPa 0,0 l/m 9,4 km/h (2 Bft) SO 135 8,0 C 22,2 C
12.08.2012 14:16 21,9 C 40 % 1021,0 hPa 0,0 l/m 8,3 km/h (2 Bft) O 90 7,7 C 21,9 C
12.08.2012 14:21 21,9 C 40 % 1021,0 hPa 0,0 l/m 6,5 km/h (2 Bft) SO 135 7,7 C 21,9 C
12.08.2012 14:26 22,1 C 40 % 1020,7 hPa 0,0 l/m 4,0 km/h (1 Bft) SO 135 7,9 C 22,1 C
12.08.2012 14:31 22,5 C 39 % 1020,7 hPa 0,0 l/m 11,9 km/h (2 Bft) SO 135 7,8 C 22,5 C
12.08.2012 14:36 23,0 C 39 % 1020,9 hPa 0,0 l/m 14,0 km/h (3 Bft) SO 135 8,3 C 23,0 C
12.08.2012 14:41 23,2 C 38 % 1020,9 hPa 0,0 l/m 6,1 km/h (2 Bft) O-NO 67 8,1 C 23,2 C
12.08.2012 14:46 23,2 C 38 % 1020,9 hPa 0,0 l/m 3,2 km/h (1 Bft) S-SO 157 8,1 C 23,2 C
12.08.2012 14:51 22,9 C 39 % 1020,8 hPa 0,0 l/m 11,5 km/h (2 Bft) O-NO 67 8,2 C 22,9 C
12.08.2012 14:56 23,1 C 39 % 1021,0 hPa 0,0 l/m 12,6 km/h (3 Bft) O-SO 112 8,4 C 23,1 C
12.08.2012 15:01 22,8 C 40 % 1021,0 hPa 0,0 l/m 8,3 km/h (2 Bft) SO 135 8,5 C 22,8 C
12.08.2012 15:06 22,2 C 41 % 1021,0 hPa 0,0 l/m 13,0 km/h (3 Bft) O-NO 67 8,3 C 22,2 C
12.08.2012 15:11 21,5 C 43 % 1020,9 hPa 0,0 l/m 10,8 km/h (2 Bft) O-SO 112 8,4 C 21,5 C
12.08.2012 15:16 21,3 C 43 % 1020,9 hPa 0,0 l/m 2,2 km/h (1 Bft) O-SO 112 8,2 C 21,3 C
12.08.2012 15:21 21,2 C 42 % 1020,9 hPa 0,0 l/m 19,1 km/h (3 Bft) SO 135 7,8 C 21,2 C
12.08.2012 15:26 21,0 C 43 % 1020,9 hPa 0,0 l/m 6,8 km/h (2 Bft) O-NO 67 7,9 C 21,0 C
12.08.2012 15:31 21,2 C 44 % 1020,9 hPa 0,0 l/m 8,6 km/h (2 Bft) O 90 8,5 C 21,2 C
12.08.2012 15:36 21,3 C 43 % 1020,8 hPa 0,0 l/m 4,7 km/h (1 Bft) O-SO 112 8,2 C 21,3 C
12.08.2012 15:41 21,8 C 41 % 1020,7 hPa 0,0 l/m 9,4 km/h (2 Bft) S-SO 157 8,0 C 21,8 C
12.08.2012 15:46 22,3 C 40 % 1020,7 hPa 0,0 l/m 11,5 km/h (2 Bft) S-SO 157 8,0 C 22,3 C
12.08.2012 15:51 22,6 C 39 % 1020,7 hPa 0,0 l/m 4,0 km/h (1 Bft) O-SO 112 7,9 C 22,6 C
12.08.2012 15:56 22,4 C 40 % 1020,7 hPa 0,0 l/m 23,0 km/h (4 Bft) O-SO 112 8,1 C 22,4 C
12.08.2012 16:01 22,1 C 40 % 1020,6 hPa 0,0 l/m 16,6 km/h (3 Bft) NO 45 7,9 C 22,1 C
12.08.2012 16:06 21,7 C 41 % 1020,6 hPa 0,0 l/m 6,5 km/h (2 Bft) O 90 7,9 C 21,7 C
12.08.2012 16:11 21,5 C 42 % 1020,6 hPa 0,0 l/m 2,5 km/h (1 Bft) O 90 8,0 C 21,5 C
12.08.2012 16:16 21,9 C 42 % 1020,5 hPa 0,0 l/m 4,7 km/h (1 Bft) O 90 8,4 C 21,9 C
12.08.2012 16:21 22,1 C 39 % 1020,5 hPa 0,0 l/m 9,7 km/h (2 Bft) O-SO 112 7,5 C 22,1 C
12.08.2012 16:26 22,0 C 40 % 1020,4 hPa 0,0 l/m 6,1 km/h (2 Bft) SO 135 7,8 C 22,0 C
12.08.2012 16:31 22,4 C 41 % 1020,4 hPa 0,0 l/m 10,4 km/h (2 Bft) SO 135 8,5 C 22,4 C
12.08.2012 16:36 22,1 C 41 % 1020,6 hPa 0,0 l/m 9,0 km/h (2 Bft) O 90 8,2 C 22,1 C
12.08.2012 16:41 21,8 C 41 % 1020,4 hPa 0,0 l/m 15,8 km/h (3 Bft) O-SO 112 8,0 C 21,8 C
12.08.2012 16:46 21,6 C 42 % 1020,6 hPa 0,0 l/m 7,9 km/h (2 Bft) O-NO 67 8,1 C 21,6 C
12.08.2012 16:51 21,8 C 42 % 1020,4 hPa 0,0 l/m 9,4 km/h (2 Bft) O-SO 112 8,3 C 21,8 C
12.08.2012 16:56 22,1 C 41 % 1020,4 hPa 0,0 l/m 9,4 km/h (2 Bft) SO 135 8,2 C 22,1 C
12.08.2012 17:01 22,4 C 40 % 1020,4 hPa 0,0 l/m 4,0 km/h (1 Bft) SO 135 8,1 C 22,4 C
12.08.2012 17:06 22,9 C 40 % 1020,3 hPa 0,0 l/m 5,8 km/h (2 Bft) O-SO 112 8,6 C 22,9 C
12.08.2012 17:11 23,1 C 40 % 1020,2 hPa 0,0 l/m 5,8 km/h (2 Bft) O-SO 112 8,8 C 23,1 C
12.08.2012 17:16 23,4 C 39 % 1020,3 hPa 0,0 l/m 9,7 km/h (2 Bft) S-SO 157 8,6 C 23,4 C
12.08.2012 17:21 23,0 C 38 % 1020,3 hPa 0,0 l/m 4,7 km/h (1 Bft) SO 135 7,9 C 23,0 C
12.08.2012 17:26 22,2 C 40 % 1020,2 hPa 0,0 l/m 9,4 km/h (2 Bft) O-NO 67 8,0 C 22,2 C
12.08.2012 17:31 21,6 C 42 % 1020,2 hPa 0,0 l/m 3,2 km/h (1 Bft) SO 135 8,1 C 21,6 C
12.08.2012 17:36 21,8 C 42 % 1020,0 hPa 0,0 l/m 4,3 km/h (1 Bft) SO 135 8,3 C 21,8 C
12.08.2012 17:41 22,2 C 41 % 1019,9 hPa 0,0 l/m 0,0 km/h (0 Bft) O-SO 112 8,3 C 22,2 C
12.08.2012 17:46 22,4 C 40 % 1019,8 hPa 0,0 l/m 5,0 km/h (1 Bft) O 90 8,1 C 22,4 C
12.08.2012 17:51 22,4 C 40 % 1019,8 hPa 0,0 l/m 4,0 km/h (1 Bft) O-SO 112 8,1 C 22,4 C
12.08.2012 17:56 22,6 C 38 % 1019,9 hPa 0,0 l/m 8,3 km/h (2 Bft) O-SO 112 7,6 C 22,6 C
12.08.2012 18:01 22,3 C 38 % 1020,0 hPa 0,0 l/m 6,5 km/h (2 Bft) O 90 7,3 C 22,3 C
12.08.2012 18:06 22,1 C 39 % 1019,9 hPa 0,0 l/m 5,0 km/h (1 Bft) O-NO 67 7,5 C 22,1 C
12.08.2012 18:11 21,6 C 40 % 1020,0 hPa 0,0 l/m 10,4 km/h (2 Bft) O-NO 67 7,4 C 21,6 C
12.08.2012 18:16 21,6 C 40 % 1019,9 hPa 0,0 l/m 9,7 km/h (2 Bft) NO 45 7,4 C 21,6 C
12.08.2012 18:21 21,7 C 40 % 1019,7 hPa 0,0 l/m 7,2 km/h (2 Bft) O-NO 67 7,5 C 21,7 C
12.08.2012 18:26 21,8 C 40 % 1019,8 hPa 0,0 l/m 5,4 km/h (1 Bft) O-NO 67 7,6 C 21,8 C
12.08.2012 18:31 21,9 C 41 % 1019,5 hPa 0,0 l/m 9,4 km/h (2 Bft) S-SO 157 8,0 C 21,9 C
12.08.2012 18:36 22,1 C 40 % 1019,5 hPa 0,0 l/m 5,0 km/h (1 Bft) S-SO 157 7,9 C 22,1 C
12.08.2012 18:41 22,1 C 40 % 1019,6 hPa 0,0 l/m 3,6 km/h (1 Bft) O 90 7,9 C 22,1 C
12.08.2012 18:46 22,1 C 40 % 1019,7 hPa 0,0 l/m 7,6 km/h (2 Bft) O-NO 67 7,9 C 22,1 C
12.08.2012 18:51 21,9 C 41 % 1019,7 hPa 0,0 l/m 9,7 km/h (2 Bft) O-SO 112 8,0 C 21,9 C
12.08.2012 18:56 21,8 C 41 % 1019,7 hPa 0,0 l/m 3,2 km/h (1 Bft) O-NO 67 8,0 C 21,8 C
12.08.2012 19:01 21,6 C 41 % 1019,7 hPa 0,0 l/m 10,1 km/h (2 Bft) O 90 7,8 C 21,6 C
12.08.2012 19:06 21,5 C 41 % 1019,7 hPa 0,0 l/m 6,5 km/h (2 Bft) O 90 7,7 C 21,5 C
12.08.2012 19:11 21,3 C 41 % 1019,6 hPa 0,0 l/m 7,6 km/h (2 Bft) O-SO 112 7,5 C 21,3 C
12.08.2012 19:16 21,4 C 41 % 1019,6 hPa 0,0 l/m 5,0 km/h (1 Bft) O 90 7,6 C 21,4 C
12.08.2012 19:21 21,3 C 41 % 1019,6 hPa 0,0 l/m 2,5 km/h (1 Bft) O 90 7,5 C 21,3 C
12.08.2012 19:26 21,4 C 42 % 1019,6 hPa 0,0 l/m 1,4 km/h (1 Bft) O 90 8,0 C 21,4 C
12.08.2012 19:31 21,5 C 42 % 1019,6 hPa 0,0 l/m 2,2 km/h (1 Bft) SO 135 8,0 C 21,5 C
12.08.2012 19:36 21,5 C 42 % 1019,5 hPa 0,0 l/m 1,8 km/h (1 Bft) O-NO 67 8,0 C 21,5 C
12.08.2012 19:41 21,3 C 43 % 1019,5 hPa 0,0 l/m 11,2 km/h (2 Bft) O 90 8,2 C 21,3 C
12.08.2012 19:46 21,1 C 43 % 1019,5 hPa 0,0 l/m 4,3 km/h (1 Bft) SO 135 8,0 C 21,1 C
12.08.2012 19:51 20,9 C 43 % 1019,5 hPa 0,0 l/m 1,8 km/h (1 Bft) SO 135 7,8 C 20,9 C
12.08.2012 19:56 20,7 C 44 % 1019,5 hPa 0,0 l/m 8,3 km/h (2 Bft) O 90 8,0 C 20,7 C
12.08.2012 20:01 20,4 C 44 % 1019,6 hPa 0,0 l/m 6,1 km/h (2 Bft) O 90 7,7 C 20,4 C
12.08.2012 20:06 20,1 C 45 % 1019,7 hPa 0,0 l/m 0,0 km/h (0 Bft) O-SO 112 7,8 C 20,1 C
12.08.2012 20:11 19,9 C 45 % 1019,6 hPa 0,0 l/m 2,2 km/h (1 Bft) SO 135 7,6 C 19,9 C
12.08.2012 20:16 19,7 C 46 % 1019,7 hPa 0,0 l/m 0,0 km/h (0 Bft) O 90 7,8 C 19,7 C
12.08.2012 20:21 19,5 C 47 % 1019,6 hPa 0,0 l/m 0,0 km/h (0 Bft) O 90 7,9 C 19,5 C
12.08.2012 20:26 19,3 C 47 % 1019,6 hPa 0,0 l/m 0,0 km/h (0 Bft) O 90 7,7 C 19,3 C
12.08.2012 20:31 19,1 C 48 % 1019,7 hPa 0,0 l/m 2,5 km/h (1 Bft) O 90 7,8 C 19,1 C
12.08.2012 20:36 18,9 C 48 % 1019,7 hPa 0,0 l/m 0,0 km/h (0 Bft) SO 135 7,6 C 18,9 C
12.08.2012 20:41 18,8 C 49 % 1019,7 hPa 0,0 l/m 0,0 km/h (0 Bft) O 90 7,9 C 18,8 C
12.08.2012 20:46 18,5 C 49 % 1019,7 hPa 0,0 l/m 1,8 km/h (1 Bft) O 90 7,6 C 18,5 C
12.08.2012 20:51 18,3 C 50 % 1019,8 hPa 0,0 l/m 0,0 km/h (0 Bft) O 90 7,7 C 18,3 C
12.08.2012 20:56 18,2 C 50 % 1019,9 hPa 0,0 l/m 1,4 km/h (1 Bft) O 90 7,6 C 18,2 C
12.08.2012 21:01 18,0 C 50 % 1019,8 hPa 0,0 l/m 0,0 km/h (0 Bft) O 90 7,4 C 18,0 C
12.08.2012 21:06 17,9 C 51 % 1019,8 hPa 0,0 l/m 1,4 km/h (1 Bft) O 90 7,6 C 17,9 C
12.08.2012 21:11 17,7 C 52 % 1019,6 hPa 0,0 l/m 0,0 km/h (0 Bft) O 90 7,7 C 17,7 C
12.08.2012 21:16 17,6 C 52 % 1019,7 hPa 0,0 l/m 1,8 km/h (1 Bft) O 90 7,6 C 17,6 C
12.08.2012 21:21 17,3 C 53 % 1019,7 hPa 0,0 l/m 2,2 km/h (1 Bft) O 90 7,6 C 17,3 C
12.08.2012 21:26 17,2 C 53 % 1019,7 hPa 0,0 l/m 0,0 km/h (0 Bft) O 90 7,5 C 17,2 C
12.08.2012 21:31 17,1 C 53 % 1019,7 hPa 0,0 l/m 0,0 km/h (0 Bft) O 90 7,4 C 17,1 C
12.08.2012 21:36 16,9 C 54 % 1019,7 hPa 0,0 l/m 0,0 km/h (0 Bft) O 90 7,5 C 16,9 C
12.08.2012 21:41 16,9 C 55 % 1019,7 hPa 0,0 l/m 1,1 km/h (1 Bft) O 90 7,8 C 16,9 C
12.08.2012 21:46 16,8 C 56 % 1019,7 hPa 0,0 l/m 1,4 km/h (1 Bft) O 90 8,0 C 16,8 C
12.08.2012 21:51 16,6 C 57 % 1019,8 hPa 0,0 l/m 0,0 km/h (0 Bft) O 90 8,0 C 16,6 C
12.08.2012 21:56 16,4 C 57 % 1019,8 hPa 0,0 l/m 0,0 km/h (0 Bft) O 90 7,9 C 16,4 C
12.08.2012 22:01 16,3 C 58 % 1019,9 hPa 0,0 l/m 0,0 km/h (0 Bft) O 90 8,0 C 16,3 C
12.08.2012 22:06 16,2 C 58 % 1019,9 hPa 0,0 l/m 0,0 km/h (0 Bft) O 90 7,9 C 16,2 C
12.08.2012 22:11 16,1 C 59 % 1019,8 hPa 0,0 l/m 0,0 km/h (0 Bft) O 90 8,1 C 16,1 C
12.08.2012 22:16 15,9 C 59 % 1019,7 hPa 0,0 l/m 0,0 km/h (0 Bft) O 90 7,9 C 15,9 C
12.08.2012 22:21 15,9 C 59 % 1019,7 hPa 0,0 l/m 0,0 km/h (0 Bft) O 90 7,9 C 15,9 C
12.08.2012 22:26 15,8 C 60 % 1019,8 hPa 0,0 l/m 0,0 km/h (0 Bft) O 90 8,1 C 15,8 C
12.08.2012 22:31 15,8 C 60 % 1019,9 hPa 0,0 l/m 0,0 km/h (0 Bft) O-NO 67 8,1 C 15,8 C
12.08.2012 22:36 15,6 C 60 % 1020,0 hPa 0,0 l/m 1,1 km/h (1 Bft) O-NO 67 7,9 C 15,6 C
12.08.2012 22:41 15,5 C 62 % 1020,1 hPa 0,0 l/m 0,0 km/h (0 Bft) NO 45 8,3 C 15,5 C
12.08.2012 22:46 15,3 C 62 % 1020,1 hPa 0,0 l/m 1,4 km/h (1 Bft) NO 45 8,1 C 15,3 C
12.08.2012 22:51 15,1 C 63 % 1020,3 hPa 0,0 l/m 4,3 km/h (1 Bft) O 90 8,1 C 15,1 C
12.08.2012 22:56 14,9 C 64 % 1020,2 hPa 0,0 l/m 0,0 km/h (0 Bft) O 90 8,2 C 14,9 C
12.08.2012 23:01 14,9 C 64 % 1020,3 hPa 0,0 l/m 0,0 km/h (0 Bft) O 90 8,2 C 14,9 C
12.08.2012 23:06 14,8 C 64 % 1020,2 hPa 0,0 l/m 1,4 km/h (1 Bft) O 90 8,1 C 14,8 C
12.08.2012 23:11 14,7 C 64 % 1020,2 hPa 0,0 l/m 3,6 km/h (1 Bft) O 90 8,0 C 14,7 C
12.08.2012 23:16 14,6 C 65 % 1020,2 hPa 0,0 l/m 1,4 km/h (1 Bft) O 90 8,1 C 14,6 C
12.08.2012 23:21 14,6 C 65 % 1020,2 hPa 0,0 l/m 1,8 km/h (1 Bft) O 90 8,1 C 14,6 C
12.08.2012 23:26 14,5 C 66 % 1020,3 hPa 0,0 l/m 2,5 km/h (1 Bft) O 90 8,2 C 14,5 C
12.08.2012 23:31 14,4 C 67 % 1020,3 hPa 0,0 l/m 4,0 km/h (1 Bft) O 90 8,4 C 14,4 C
12.08.2012 23:36 14,4 C 68 % 1020,3 hPa 0,0 l/m 1,8 km/h (1 Bft) O-NO 67 8,6 C 14,4 C
12.08.2012 23:41 14,4 C 69 % 1020,3 hPa 0,0 l/m 4,3 km/h (1 Bft) O 90 8,8 C 14,4 C
12.08.2012 23:46 14,3 C 70 % 1020,4 hPa 0,0 l/m 2,2 km/h (1 Bft) O-NO 67 8,9 C 14,3 C
12.08.2012 23:51 14,3 C 70 % 1020,3 hPa 0,0 l/m 5,0 km/h (1 Bft) O-NO 67 8,9 C 14,3 C
12.08.2012 23:56 14,2 C 71 % 1020,4 hPa 0,0 l/m 1,4 km/h (1 Bft) O 90 9,0 C 14,2 C
_ Min-Zeit 06:11 14:41 18:31 - 00:06 - - 18:01 06:11
Minimum _ 10,6 C 38 % 1019,5 hPa - 0,0 km/h (0 Bft) - - 7,3 C 10,6 C
_ Max-Zeit 17:16 06:06 00:01 00:01 15:56 - - 09:36 17:16
Maximum _ 23,4 C 87 % 1023,3 hPa 0,0 l/m 23,0 km/h
O-SO (4 Bft)
- - 11,5 C 23,4 C
Durchschnitt _ 17,1 C 61 % 1021,3 hPa #0,0 l/m 5,4 km/h (1 Bft) O - 8,8 C 17,1 C
(c) by David Heller